createdAt,value
2017-05-27T00:00:24.599Z,69.17
2017-05-27T00:01:05.190Z,69.26
2017-05-27T00:01:45.778Z,69.46
2017-05-27T00:02:26.353Z,69.46
2017-05-27T00:03:06.947Z,69.46
2017-05-27T00:03:47.549Z,69.36
2017-05-27T00:04:28.138Z,69.26
2017-05-27T00:05:08.713Z,69.07
2017-05-27T00:05:49.298Z,69.17
2017-05-27T00:06:29.880Z,68.98
2017-05-27T00:07:10.465Z,69.26
2017-05-27T00:07:51.044Z,68.98
2017-05-27T00:08:31.635Z,69.36
2017-05-27T00:09:12.220Z,69.46
2017-05-27T00:09:52.807Z,69.46
2017-05-27T00:10:33.386Z,69.26
2017-05-27T00:11:13.978Z,69.36
2017-05-27T00:11:54.590Z,69.46
2017-05-27T00:12:35.181Z,69.17
2017-05-27T00:13:15.773Z,69.74
2017-05-27T00:13:56.404Z,69.46
2017-05-27T00:14:36.992Z,69.26
2017-05-27T00:15:17.565Z,69.26
2017-05-27T00:15:58.149Z,69.26
2017-05-27T00:16:38.736Z,69.36
2017-05-27T00:17:19.322Z,69.84
2017-05-27T00:17:59.934Z,69.26
2017-05-27T00:18:40.511Z,69.81
2017-05-27T00:19:21.129Z,69.62
2017-05-27T00:20:01.712Z,69.62
2017-05-27T00:20:42.300Z,69.71
2017-05-27T00:21:22.865Z,69.9
2017-05-27T00:22:03.441Z,69.9
2017-05-27T00:22:44.030Z,69.84
2017-05-27T00:23:24.603Z,69.81
2017-05-27T00:24:05.189Z,70.09
2017-05-27T00:24:45.777Z,69.62
2017-05-27T00:25:26.357Z,69.62
2017-05-27T00:26:06.952Z,70.29
2017-05-27T00:26:47.567Z,70.13
2017-05-27T00:27:28.154Z,69.9
2017-05-27T00:28:08.738Z,70.29
2017-05-27T00:28:49.326Z,70.48
2017-05-27T00:29:29.921Z,70.38
2017-05-27T00:30:10.558Z,70.57
2017-05-27T00:30:51.153Z,70.48
2017-05-27T00:31:31.734Z,69.9
2017-05-27T00:32:12.319Z,70.19
2017-05-27T00:32:52.931Z,70.19
2017-05-27T00:33:33.547Z,70.19
2017-05-27T00:34:14.139Z,70.32
2017-05-27T00:34:54.727Z,69.71
2017-05-27T00:35:35.300Z,70.19
2017-05-27T00:36:15.897Z,70.38
2017-05-27T00:36:56.489Z,70.19
2017-05-27T00:37:37.072Z,70.09
2017-05-27T00:38:17.666Z,69.9
2017-05-27T00:38:58.243Z,69.9
2017-05-27T00:39:38.837Z,69.9
2017-05-27T00:40:19.425Z,70
2017-05-27T00:41:00.032Z,70.09
2017-05-27T00:41:40.630Z,70.19
2017-05-27T00:42:21.186Z,70.29
2017-05-27T00:43:01.763Z,69.9
2017-05-27T00:43:42.360Z,70.29
2017-05-27T00:44:22.951Z,69.9
2017-05-27T00:45:03.530Z,69.81
2017-05-27T00:45:44.116Z,70.19
2017-05-27T00:46:24.691Z,70.29
2017-05-27T00:47:05.284Z,70.09
2017-05-27T00:47:45.876Z,70.29
2017-05-27T00:48:26.472Z,70.57
2017-05-27T00:49:07.069Z,70.57
2017-05-27T00:49:47.649Z,70.67
2017-05-27T00:50:28.238Z,70.38
2017-05-27T00:51:08.820Z,70.57
2017-05-27T00:51:49.420Z,70.57
2017-05-27T00:52:29.994Z,70.57
2017-05-27T00:53:10.580Z,70.67
2017-05-27T00:53:51.165Z,70.86
2017-05-27T00:54:31.757Z,70.67
2017-05-27T00:55:12.345Z,71.15
2017-05-27T00:55:52.930Z,71.34
2017-05-27T00:56:33.513Z,71.15
2017-05-27T00:57:17.697Z,71.05
2017-05-27T00:57:58.289Z,71.53
2017-05-27T00:58:38.893Z,70.86
2017-05-27T00:59:19.471Z,71.25
2017-05-27T01:00:00.063Z,71.05
2017-05-27T01:00:40.678Z,71.15
2017-05-27T01:01:21.263Z,71.44
2017-05-27T01:02:01.847Z,70.96
2017-05-27T01:02:42.443Z,71.53
2017-05-27T01:03:23.013Z,71.25
2017-05-27T01:04:03.590Z,71.34
2017-05-27T01:04:44.181Z,71.53
2017-05-27T01:05:24.763Z,71.25
2017-05-27T01:06:05.346Z,71.34
2017-05-27T01:06:45.930Z,71.25
2017-05-27T01:07:26.519Z,71.34
2017-05-27T01:08:07.107Z,71.15
2017-05-27T01:08:47.683Z,71.25
2017-05-27T01:09:28.280Z,71.44
2017-05-27T01:10:08.857Z,71.44
2017-05-27T01:10:49.439Z,71.44
2017-05-27T01:11:30.012Z,71.44
2017-05-27T01:12:10.601Z,71.44
2017-05-27T01:12:51.196Z,71.34
2017-05-27T01:13:31.770Z,71.53
2017-05-27T01:14:12.347Z,71.5
2017-05-27T01:14:52.947Z,71.34
2017-05-27T01:15:33.535Z,71.82
2017-05-27T01:16:14.125Z,71.63
2017-05-27T01:16:54.721Z,71.92
2017-05-27T01:17:35.303Z,71.98
2017-05-27T01:18:15.885Z,72.07
2017-05-27T01:18:56.482Z,71.78
2017-05-27T01:19:37.071Z,72.07
2017-05-27T01:20:17.651Z,72.07
2017-05-27T01:20:58.228Z,72.17
2017-05-27T01:21:38.814Z,72.11
2017-05-27T01:22:19.439Z,72.3
2017-05-27T01:22:59.997Z,72.07
2017-05-27T01:23:40.643Z,71.88
2017-05-27T01:24:21.225Z,72.17
2017-05-27T01:25:01.808Z,72.3
2017-05-27T01:25:42.414Z,72.27
2017-05-27T01:26:23.002Z,72.07
2017-05-27T01:27:03.580Z,72.45
2017-05-27T01:27:44.164Z,72.36
2017-05-27T01:28:24.760Z,72.45
2017-05-27T01:29:05.348Z,72.45
2017-05-27T01:29:45.937Z,72.27
2017-05-27T01:30:26.541Z,72.55
2017-05-27T01:31:07.123Z,72.45
2017-05-27T01:31:47.724Z,72.36
2017-05-27T01:32:28.307Z,72.36
2017-05-27T01:33:08.896Z,72.27
2017-05-27T01:33:49.507Z,72.45
2017-05-27T01:34:30.090Z,72.17
2017-05-27T01:35:10.668Z,72.36
2017-05-27T01:35:51.261Z,72.74
2017-05-27T01:36:31.836Z,72.55
2017-05-27T01:37:12.430Z,72.64
2017-05-27T01:37:53.018Z,72.55
2017-05-27T01:38:33.591Z,72.55
2017-05-27T01:39:14.168Z,72.55
2017-05-27T01:39:54.752Z,72.94
2017-05-27T01:40:35.338Z,72.55
2017-05-27T01:41:15.924Z,72.64
2017-05-27T01:41:56.515Z,72.45
2017-05-27T01:42:37.118Z,72.55
2017-05-27T01:43:17.707Z,72.55
2017-05-27T01:43:58.296Z,72.45
2017-05-27T01:44:38.897Z,72.64
2017-05-27T01:45:19.505Z,72.36
2017-05-27T01:46:00.089Z,72.36
2017-05-27T01:46:40.689Z,73.03
2017-05-27T01:47:21.276Z,72.36
2017-05-27T01:48:01.864Z,72.55
2017-05-27T01:48:42.445Z,72.55
2017-05-27T01:49:23.048Z,73.03
2017-05-27T01:50:03.646Z,72.55
2017-05-27T01:50:44.231Z,72.36
2017-05-27T01:51:24.821Z,72.74
2017-05-27T01:52:05.452Z,73.03
2017-05-27T01:52:46.029Z,73.13
2017-05-27T01:53:26.613Z,73.41
2017-05-27T01:54:07.202Z,72.64
2017-05-27T01:54:47.782Z,73.41
2017-05-27T01:55:28.374Z,73.32
2017-05-27T01:56:08.956Z,72.84
2017-05-27T01:56:49.537Z,72.94
2017-05-27T01:57:30.119Z,72.94
2017-05-27T01:58:10.706Z,72.99
2017-05-27T01:58:51.288Z,72.99
2017-05-27T01:59:31.968Z,73.09
2017-05-27T02:00:12.553Z,72.9
2017-05-27T02:00:53.122Z,72.74
2017-05-27T02:01:33.758Z,72.99
2017-05-27T02:02:14.335Z,72.99
2017-05-27T02:02:54.935Z,73.13
2017-05-27T02:03:35.526Z,73.28
2017-05-27T02:04:16.121Z,73.28
2017-05-27T02:04:56.724Z,73.28
2017-05-27T02:05:37.322Z,73.57
2017-05-27T02:06:17.912Z,73.28
2017-05-27T02:06:58.488Z,73.47
2017-05-27T02:07:39.075Z,73.47
2017-05-27T02:08:19.658Z,73.47
2017-05-27T02:09:00.261Z,73.47
2017-05-27T02:09:40.847Z,73.51
2017-05-27T02:10:21.572Z,73.95
2017-05-27T02:11:02.162Z,73.38
2017-05-27T02:11:42.777Z,73.95
2017-05-27T02:12:23.375Z,73.57
2017-05-27T02:13:03.982Z,73.13
2017-05-27T02:13:44.549Z,73.22
2017-05-27T02:14:25.135Z,72.71
2017-05-27T02:15:05.716Z,72.99
2017-05-27T02:15:46.291Z,72.8
2017-05-27T02:16:26.888Z,72.84
2017-05-27T02:17:07.471Z,72.9
2017-05-27T02:17:48.054Z,72.9
2017-05-27T02:18:28.631Z,73.38
2017-05-27T02:19:09.247Z,72.71
2017-05-27T02:19:49.848Z,72.99
2017-05-27T02:20:30.430Z,72.55
2017-05-27T02:21:11.024Z,72.8
2017-05-27T02:21:51.632Z,72.61
2017-05-27T02:22:32.194Z,72.9
2017-05-27T02:23:12.777Z,73.38
2017-05-27T02:23:53.439Z,73.03
2017-05-27T02:24:33.984Z,72.99
2017-05-27T02:25:14.577Z,72.8
2017-05-27T02:25:55.159Z,73.28
2017-05-27T02:26:35.768Z,72.8
2017-05-27T02:27:16.362Z,72.71
2017-05-27T02:27:57.008Z,72.8
2017-05-27T02:28:37.603Z,72.8
2017-05-27T02:29:18.215Z,72.8
2017-05-27T02:29:58.798Z,72.8
2017-05-27T02:30:39.405Z,73.19
2017-05-27T02:31:19.994Z,72.8
2017-05-27T02:32:00.570Z,73.19
2017-05-27T02:32:41.151Z,73.47
2017-05-27T02:33:21.732Z,73.38
2017-05-27T02:34:02.327Z,73.57
2017-05-27T02:34:42.916Z,73.28
2017-05-27T02:35:23.496Z,73.38
2017-05-27T02:36:04.084Z,73.38
2017-05-27T02:36:44.690Z,73.28
2017-05-27T02:37:25.285Z,73.28
2017-05-27T02:38:05.871Z,73.28
2017-05-27T02:38:46.455Z,73.28
2017-05-27T02:39:27.039Z,72.8
2017-05-27T02:40:07.656Z,72.8
2017-05-27T02:40:48.254Z,73.38
2017-05-27T02:41:28.838Z,73.47
2017-05-27T02:42:09.420Z,73.47
2017-05-27T02:42:50.001Z,73.66
2017-05-27T02:43:30.595Z,73.38
2017-05-27T02:44:11.188Z,73.57
2017-05-27T02:44:51.773Z,73.28
2017-05-27T02:45:32.360Z,73.47
2017-05-27T02:46:12.945Z,73.38
2017-05-27T02:46:53.523Z,73.66
2017-05-27T02:47:34.111Z,73.86
2017-05-27T02:48:14.707Z,73.57
2017-05-27T02:48:55.298Z,73.95
2017-05-27T02:49:35.894Z,73.95
2017-05-27T02:50:16.475Z,73.95
2017-05-27T02:50:57.055Z,73.76
2017-05-27T02:51:37.643Z,74.52
2017-05-27T02:52:18.232Z,74.52
2017-05-27T02:52:58.821Z,74.05
2017-05-27T02:53:39.677Z,74.43
2017-05-27T02:54:20.269Z,74.52
2017-05-27T02:55:00.906Z,74.52
2017-05-27T02:55:41.441Z,74.24
2017-05-27T02:56:22.057Z,74.15
2017-05-27T02:57:02.639Z,74.24
2017-05-27T02:57:43.252Z,73.95
2017-05-27T02:58:23.839Z,73.76
2017-05-27T02:59:04.426Z,74.15
2017-05-27T02:59:45.016Z,73.86
2017-05-27T03:00:25.631Z,73.76
2017-05-27T03:01:06.218Z,73.95
2017-05-27T03:01:46.803Z,73.95
2017-05-27T03:02:27.380Z,73.76
2017-05-27T03:03:07.973Z,74.52
2017-05-27T03:03:48.554Z,73.95
2017-05-27T03:04:29.130Z,73.95
2017-05-27T03:05:09.729Z,74.33
2017-05-27T03:05:50.325Z,74.24
2017-05-27T03:06:30.906Z,74.33
2017-05-27T03:07:11.490Z,74.33
2017-05-27T03:07:52.087Z,74.33
2017-05-27T03:08:32.687Z,74.15
2017-05-27T03:09:13.274Z,74.33
2017-05-27T03:09:53.899Z,74.24
2017-05-27T03:10:34.502Z,74.24
2017-05-27T03:11:15.089Z,74.05
2017-05-27T03:11:55.685Z,74.24
2017-05-27T03:12:36.294Z,74.33
2017-05-27T03:13:16.905Z,74.05
2017-05-27T03:13:57.493Z,74.24
2017-05-27T03:14:38.086Z,74.05
2017-05-27T03:15:18.666Z,74.33
2017-05-27T03:15:59.265Z,73.86
2017-05-27T03:16:39.849Z,73.95
2017-05-27T03:17:20.437Z,74.24
2017-05-27T03:18:01.015Z,74.05
2017-05-27T03:18:41.597Z,74.24
2017-05-27T03:19:22.177Z,74.24
2017-05-27T03:20:02.767Z,74.05
2017-05-27T03:20:43.351Z,74.05
2017-05-27T03:21:23.931Z,74.05
2017-05-27T03:22:04.511Z,74.24
2017-05-27T03:22:45.100Z,74.05
2017-05-27T03:23:25.757Z,74.52
2017-05-27T03:24:06.341Z,74.43
2017-05-27T03:24:46.927Z,74.15
2017-05-27T03:25:27.550Z,74.24
2017-05-27T03:26:08.263Z,74.33
2017-05-27T03:26:48.870Z,74.43
2017-05-27T03:27:29.479Z,73.86
2017-05-27T03:28:10.057Z,73.86
2017-05-27T03:28:50.688Z,74.15
2017-05-27T03:29:31.268Z,74.05
2017-05-27T03:30:11.883Z,74.24
2017-05-27T03:30:52.479Z,73.95
2017-05-27T03:31:33.068Z,74.24
2017-05-27T03:32:13.707Z,74.33
2017-05-27T03:32:54.302Z,74.24
2017-05-27T03:33:34.886Z,74.52
2017-05-27T03:34:15.468Z,74.24
2017-05-27T03:34:56.047Z,74.15
2017-05-27T03:35:36.625Z,74.15
2017-05-27T03:36:17.211Z,74.33
2017-05-27T03:36:57.795Z,74.15
2017-05-27T03:37:38.384Z,74.43
2017-05-27T03:38:18.970Z,74.43
2017-05-27T03:38:59.566Z,74.24
2017-05-27T03:39:40.159Z,74.15
2017-05-27T03:40:20.779Z,74.52
2017-05-27T03:41:01.371Z,74.05
2017-05-27T03:41:41.956Z,74.24
2017-05-27T03:42:22.537Z,74.24
2017-05-27T03:43:03.133Z,74.24
2017-05-27T03:43:43.723Z,74.05
2017-05-27T03:44:24.317Z,74.15
2017-05-27T03:45:04.904Z,74.24
2017-05-27T03:45:45.499Z,74.24
2017-05-27T03:46:26.076Z,74.15
2017-05-27T03:47:06.679Z,74.33
2017-05-27T03:47:47.269Z,74.24
2017-05-27T03:48:27.849Z,74.15
2017-05-27T03:49:08.435Z,74.24
2017-05-27T03:49:49.018Z,74.15
2017-05-27T03:50:29.625Z,74.43
2017-05-27T03:51:10.215Z,74.24
2017-05-27T03:51:50.804Z,74.33
2017-05-27T03:52:31.388Z,74.24
2017-05-27T03:53:12.043Z,74.11
2017-05-27T03:53:52.657Z,74.24
2017-05-27T03:54:33.260Z,73.95
2017-05-27T03:55:13.860Z,74.2
2017-05-27T03:55:54.445Z,74.3
2017-05-27T03:56:35.024Z,74.58
2017-05-27T03:57:15.613Z,74.68
2017-05-27T03:57:56.207Z,74.87
2017-05-27T03:58:36.831Z,74.68
2017-05-27T03:59:17.421Z,74.62
2017-05-27T03:59:58.058Z,74.43
2017-05-27T04:00:38.651Z,74.49
2017-05-27T04:01:19.227Z,74.49
2017-05-27T04:01:59.821Z,74.77
2017-05-27T04:02:40.413Z,74.43
2017-05-27T04:03:20.995Z,74.33
2017-05-27T04:04:01.581Z,74.62
2017-05-27T04:04:42.157Z,74.72
2017-05-27T04:05:23.316Z,74.68
2017-05-27T04:06:03.903Z,74.62
2017-05-27T04:06:44.478Z,74.77
2017-05-27T04:07:25.073Z,74.4
2017-05-27T04:08:05.656Z,74.58
2017-05-27T04:08:46.257Z,74.4
2017-05-27T04:09:26.831Z,74.43
2017-05-27T04:10:07.431Z,74.97
2017-05-27T04:10:48.030Z,74.72
2017-05-27T04:11:28.604Z,74.24
2017-05-27T04:12:09.190Z,74.15
2017-05-27T04:12:49.835Z,74.43
2017-05-27T04:13:30.373Z,74.33
2017-05-27T04:14:10.957Z,74.62
2017-05-27T04:14:51.541Z,74.49
2017-05-27T04:15:32.124Z,74.72
2017-05-27T04:16:12.722Z,74.4
2017-05-27T04:16:53.289Z,74.43
2017-05-27T04:17:33.883Z,74.77
2017-05-27T04:18:14.470Z,74.3
2017-05-27T04:18:55.061Z,74.4
2017-05-27T04:19:35.654Z,74.3
2017-05-27T04:20:16.223Z,74.11
2017-05-27T04:20:56.803Z,74.4
2017-05-27T04:21:37.402Z,74.43
2017-05-27T04:22:17.986Z,74.24
2017-05-27T04:22:58.616Z,74.4
2017-05-27T04:23:39.192Z,74.4
2017-05-27T04:24:19.800Z,74.43
2017-05-27T04:25:00.386Z,74.4
2017-05-27T04:25:40.974Z,74.49
2017-05-27T04:26:21.558Z,74.58
2017-05-27T04:27:02.209Z,74.49
2017-05-27T04:27:42.796Z,74.82
2017-05-27T04:28:23.380Z,74.2
2017-05-27T04:29:03.953Z,74.72
2017-05-27T04:29:44.541Z,74.05
2017-05-27T04:30:25.123Z,74.43
2017-05-27T04:31:05.705Z,74.82
2017-05-27T04:31:46.288Z,74.72
2017-05-27T04:32:26.896Z,74.43
2017-05-27T04:33:07.468Z,74.72
2017-05-27T04:33:48.059Z,74.33
2017-05-27T04:34:28.650Z,74.52
2017-05-27T04:35:09.240Z,74.72
2017-05-27T04:35:49.816Z,74.05
2017-05-27T04:36:30.406Z,74.43
2017-05-27T04:37:10.990Z,74.62
2017-05-27T04:37:51.571Z,74.72
2017-05-27T04:38:32.160Z,74.72
2017-05-27T04:39:12.764Z,74.82
2017-05-27T04:39:53.361Z,74.82
2017-05-27T04:40:33.943Z,74.43
2017-05-27T04:41:14.520Z,74.43
2017-05-27T04:41:55.112Z,74.82
2017-05-27T04:42:35.713Z,74.33
2017-05-27T04:43:16.296Z,74.91
2017-05-27T04:43:56.869Z,74.62
2017-05-27T04:44:37.459Z,74.62
2017-05-27T04:45:18.144Z,74.33
2017-05-27T04:45:58.743Z,74.24
2017-05-27T04:46:39.334Z,74.24
2017-05-27T04:47:19.953Z,74.24
2017-05-27T04:48:00.537Z,74.24
2017-05-27T04:48:41.123Z,74.33
2017-05-27T04:49:21.720Z,74.24
2017-05-27T04:50:02.312Z,74.15
2017-05-27T04:50:42.900Z,73.86
2017-05-27T04:51:23.481Z,73.95
2017-05-27T04:52:04.064Z,74.52
2017-05-27T04:52:44.668Z,74.05
2017-05-27T04:53:25.246Z,73.86
2017-05-27T04:54:05.831Z,73.76
2017-05-27T04:54:46.411Z,73.86
2017-05-27T04:55:26.997Z,73.86
2017-05-27T04:56:07.575Z,74.05
2017-05-27T04:56:48.161Z,73.86
2017-05-27T04:57:28.764Z,73.86
2017-05-27T04:58:09.364Z,73.76
2017-05-27T04:58:49.959Z,74.15
2017-05-27T04:59:30.553Z,73.95
2017-05-27T05:00:11.156Z,73.95
2017-05-27T05:00:51.743Z,73.95
2017-05-27T05:01:32.341Z,73.95
2017-05-27T05:02:12.940Z,74.05
2017-05-27T05:02:53.522Z,74.05
2017-05-27T05:03:34.152Z,73.57
2017-05-27T05:04:14.840Z,73.76
2017-05-27T05:04:55.420Z,73.76
2017-05-27T05:05:36.030Z,73.57
2017-05-27T05:06:16.628Z,73.38
2017-05-27T05:06:57.290Z,73.09
2017-05-27T05:07:37.864Z,72.71
2017-05-27T05:08:18.647Z,73.19
2017-05-27T05:08:59.246Z,72.84
2017-05-27T05:09:39.826Z,72.84
2017-05-27T05:10:20.541Z,72.9
2017-05-27T05:11:01.170Z,72.99
2017-05-27T05:11:41.747Z,72.84
2017-05-27T05:12:22.324Z,72.84
2017-05-27T05:13:02.907Z,72.55
2017-05-27T05:13:43.502Z,72.74
2017-05-27T05:14:24.095Z,72.52
2017-05-27T05:15:04.671Z,72.27
2017-05-27T05:15:45.254Z,72.45
2017-05-27T05:16:25.836Z,72.55
2017-05-27T05:17:06.434Z,72.55
2017-05-27T05:17:47.022Z,72.07
2017-05-27T05:18:27.603Z,71.69
2017-05-27T05:19:08.185Z,72.07
2017-05-27T05:19:48.761Z,71.98
2017-05-27T05:20:29.360Z,71.78
2017-05-27T05:21:21.340Z,71.78
2017-05-27T05:22:03.163Z,71.59
2017-05-27T05:22:46.358Z,71.78
2017-05-27T05:23:40.019Z,71.31
2017-05-27T05:24:25.480Z,71.21
2017-05-27T05:25:17.232Z,70.64
2017-05-27T05:25:58.578Z,70.57
2017-05-27T05:26:39.819Z,70.67
2017-05-27T05:27:26.317Z,70.67
2017-05-27T05:28:19.260Z,70.29
2017-05-27T05:28:59.901Z,68.98
2017-05-27T05:29:40.483Z,68.56
2017-05-27T05:30:21.075Z,68.4
2017-05-27T05:31:01.670Z,68.3
2017-05-27T05:31:42.264Z,67.63
2017-05-27T05:32:22.844Z,67.83
2017-05-27T05:33:03.445Z,67.83
2017-05-27T05:33:44.033Z,67.38
2017-05-27T05:34:24.619Z,66.71
2017-05-27T05:35:05.204Z,67
2017-05-27T05:35:45.829Z,66.8
2017-05-27T05:36:26.431Z,66.93
2017-05-27T05:37:07.016Z,66.74
2017-05-27T05:37:47.592Z,65.49
2017-05-27T05:38:28.178Z,64.47
2017-05-27T05:39:08.765Z,64.37
2017-05-27T05:39:49.396Z,63.51
2017-05-27T05:40:29.983Z,63.51
2017-05-27T05:41:10.588Z,64.18
2017-05-27T05:41:51.177Z,64.31
2017-05-27T05:42:31.756Z,62.87
2017-05-27T05:43:12.706Z,61.14
2017-05-27T05:43:53.312Z,60.75
2017-05-27T05:44:33.899Z,60.46
2017-05-27T05:45:14.523Z,59.99
2017-05-27T05:45:55.116Z,60.78
2017-05-27T05:46:35.718Z,61.46
2017-05-27T05:47:16.308Z,60.88
2017-05-27T05:47:56.896Z,60.69
2017-05-27T05:48:37.516Z,61.1
2017-05-27T05:49:18.115Z,61
2017-05-27T05:49:58.707Z,60.52
2017-05-27T05:50:39.664Z,58.6
2017-05-27T05:51:20.468Z,58.7
2017-05-27T05:52:01.089Z,57.54
2017-05-27T05:52:41.698Z,57.95
2017-05-27T05:53:22.664Z,57.57
2017-05-27T05:54:03.480Z,58.15
2017-05-27T05:54:44.085Z,57.37
2017-05-27T05:55:24.695Z,57.47
2017-05-27T05:56:05.305Z,58.08
2017-05-27T05:56:45.901Z,58.17
2017-05-27T05:57:26.513Z,56.92
2017-05-27T05:58:07.114Z,56.73
2017-05-27T05:58:47.720Z,56.05
2017-05-27T05:59:28.307Z,55.6
2017-05-27T06:00:08.915Z,55.22
2017-05-27T06:00:49.516Z,55.89
2017-05-27T06:01:30.122Z,55.51
2017-05-27T06:02:10.734Z,55.6
2017-05-27T06:02:51.331Z,55.6
2017-05-27T06:03:31.929Z,56.27
2017-05-27T06:04:12.526Z,55.44
2017-05-27T06:04:53.121Z,55.73
2017-05-27T06:05:33.739Z,54.09
2017-05-27T06:06:14.338Z,54.09
2017-05-27T06:06:54.938Z,54.09
2017-05-27T06:07:35.535Z,54.21
2017-05-27T06:08:16.144Z,54.98
2017-05-27T06:08:56.771Z,53.92
2017-05-27T06:09:37.369Z,53.34
2017-05-27T06:10:18.004Z,53.53
2017-05-27T06:10:58.628Z,54.21
2017-05-27T06:11:39.223Z,54.05
2017-05-27T06:12:19.980Z,53.44
2017-05-27T06:13:00.559Z,52.11
2017-05-27T06:13:41.194Z,50.86
2017-05-27T06:14:21.800Z,50.38
2017-05-27T06:15:02.403Z,50.09
2017-05-27T06:15:42.994Z,50.18
2017-05-27T06:16:23.605Z,49.41
2017-05-27T06:17:04.225Z,49.8
2017-05-27T06:17:44.847Z,50.47
2017-05-27T06:18:25.469Z,50.67
2017-05-27T06:19:06.291Z,49.8
2017-05-27T06:19:46.883Z,49.6
2017-05-27T06:20:27.474Z,49.63
2017-05-27T06:21:08.112Z,49.34
2017-05-27T06:21:48.701Z,49.34
2017-05-27T06:22:29.293Z,48.66
2017-05-27T06:23:09.894Z,48.76
2017-05-27T06:23:50.512Z,48.28
2017-05-27T06:24:31.115Z,49.24
2017-05-27T06:25:11.726Z,48.95
2017-05-27T06:25:52.325Z,50.21
2017-05-27T06:26:32.907Z,49.27
2017-05-27T06:27:13.580Z,48.49
2017-05-27T06:27:54.180Z,49.07
2017-05-27T06:28:34.894Z,49.65
2017-05-27T06:29:15.500Z,48.11
2017-05-27T06:29:56.099Z,47.33
2017-05-27T06:30:36.702Z,46.66
2017-05-27T06:31:17.297Z,47.33
2017-05-27T06:31:57.913Z,46.75
2017-05-27T06:32:38.508Z,46.47
2017-05-27T06:33:19.097Z,47.91
2017-05-27T06:33:59.706Z,48.01
2017-05-27T06:34:40.323Z,47.53
2017-05-27T06:35:20.922Z,47.43
2017-05-27T06:36:01.535Z,47.24
2017-05-27T06:36:42.125Z,45.91
2017-05-27T06:37:22.713Z,44.56
2017-05-27T06:38:03.374Z,44.17
2017-05-27T06:38:43.959Z,47.14
2017-05-27T06:39:24.748Z,46.66
2017-05-27T06:40:05.342Z,46
2017-05-27T06:40:46.112Z,45.91
2017-05-27T06:41:26.716Z,45.81
2017-05-27T06:42:07.316Z,46
2017-05-27T06:42:47.908Z,45.52
2017-05-27T06:43:28.521Z,45.14
2017-05-27T06:44:09.124Z,45.52
2017-05-27T06:44:49.747Z,47.16
2017-05-27T06:45:30.349Z,47.07
2017-05-27T06:46:11.118Z,45.72
2017-05-27T06:46:51.783Z,44.94
2017-05-27T06:47:32.383Z,44.29
2017-05-27T06:48:12.985Z,45.62
2017-05-27T06:48:56.512Z,44.17
2017-05-27T06:49:39.163Z,43.99
2017-05-27T06:50:20.660Z,43.32
2017-05-27T06:51:01.286Z,44.17
2017-05-27T06:51:41.910Z,43.4
2017-05-27T06:52:22.511Z,44.38
2017-05-27T06:53:03.141Z,43.88
2017-05-27T06:53:43.725Z,43.88
2017-05-27T06:54:24.490Z,44.96
2017-05-27T06:55:05.089Z,46.12
2017-05-27T06:55:45.717Z,45.74
2017-05-27T06:56:27.236Z,44.87
2017-05-27T06:57:07.857Z,44.09
2017-05-27T06:57:48.450Z,43.9
2017-05-27T06:58:29.037Z,44.19
2017-05-27T06:59:09.642Z,43.9
2017-05-27T06:59:50.235Z,44.87
2017-05-27T07:00:30.828Z,45.45
2017-05-27T07:01:11.438Z,45.25
2017-05-27T07:01:52.027Z,44.87
2017-05-27T07:02:32.624Z,43.8
2017-05-27T07:03:13.233Z,43.61
2017-05-27T07:03:53.854Z,43.41
2017-05-27T07:04:34.481Z,42.76
2017-05-27T07:05:15.080Z,41.48
2017-05-27T07:05:55.671Z,42.55
2017-05-27T07:06:36.278Z,43.41
2017-05-27T07:07:16.937Z,43.61
2017-05-27T07:07:57.534Z,43.51
2017-05-27T07:08:38.142Z,42.76
2017-05-27T07:09:18.730Z,43.61
2017-05-27T07:09:59.320Z,42.93
2017-05-27T07:10:39.977Z,43.82
2017-05-27T07:11:20.606Z,43.73
2017-05-27T07:12:01.187Z,44.12
2017-05-27T07:12:41.798Z,42.57
2017-05-27T07:13:22.379Z,42.66
2017-05-27T07:14:02.994Z,42.86
2017-05-27T07:14:43.597Z,42.66
2017-05-27T07:15:24.250Z,41.89
2017-05-27T07:16:04.835Z,41.99
2017-05-27T07:16:45.478Z,41.89
2017-05-27T07:17:26.060Z,41.31
2017-05-27T07:18:06.648Z,41.31
2017-05-27T07:18:47.255Z,42.08
2017-05-27T07:19:27.849Z,42.86
2017-05-27T07:20:08.463Z,43.34
2017-05-27T07:20:49.039Z,40.83
2017-05-27T07:21:29.648Z,40.56
2017-05-27T07:22:10.254Z,41.24
2017-05-27T07:22:50.846Z,41.02
2017-05-27T07:23:31.442Z,41.11
2017-05-27T07:24:12.042Z,40.44
2017-05-27T07:24:52.664Z,39.78
2017-05-27T07:25:33.260Z,40.26
2017-05-27T07:26:13.869Z,40.46
2017-05-27T07:26:54.467Z,40.92
2017-05-27T07:27:35.055Z,40.53
2017-05-27T07:28:15.756Z,40.94
2017-05-27T07:28:56.350Z,40.25
2017-05-27T07:29:36.953Z,40.36
2017-05-27T07:30:17.572Z,40.75
2017-05-27T07:30:58.229Z,42.1
2017-05-27T07:31:38.857Z,42.68
2017-05-27T07:32:19.452Z,42
2017-05-27T07:33:01.622Z,40.36
2017-05-27T07:33:55.373Z,39.29
2017-05-27T07:34:44.504Z,39.29
2017-05-27T07:35:32.187Z,41.24
2017-05-27T07:36:12.994Z,40.84
2017-05-27T07:36:53.622Z,39.7
2017-05-27T07:37:34.246Z,39.39
2017-05-27T07:38:22.231Z,38.91
2017-05-27T07:39:11.989Z,38.73
2017-05-27T07:39:57.123Z,38.53
2017-05-27T07:40:48.154Z,40.36
2017-05-27T07:41:43.499Z,39.11
2017-05-27T07:42:34.962Z,40.38
2017-05-27T07:43:36.393Z,39.39
2017-05-27T07:44:31.133Z,40.65
2017-05-27T07:45:16.762Z,41.24
2017-05-27T07:46:02.038Z,41.35
2017-05-27T07:46:48.987Z,42.13
2017-05-27T07:47:31.512Z,41.93
2017-05-27T07:48:13.717Z,42.61
2017-05-27T07:49:06.633Z,39.7
2017-05-27T07:49:50.232Z,40.28
2017-05-27T07:50:33.835Z,40.09
2017-05-27T07:51:21.617Z,39.9
2017-05-27T07:52:09.009Z,39.49
2017-05-27T07:52:51.421Z,40.48
2017-05-27T07:53:44.388Z,41.45
2017-05-27T07:54:32.752Z,40.28
2017-05-27T07:55:14.057Z,39.8
2017-05-27T07:56:03.513Z,39.51
2017-05-27T07:56:46.921Z,39.03
2017-05-27T07:57:31.134Z,39.12
2017-05-27T07:58:16.073Z,40.28
2017-05-27T07:58:56.707Z,40.38
2017-05-27T07:59:37.337Z,40.07
2017-05-27T08:00:17.934Z,39.88
2017-05-27T08:01:00.197Z,38.06
2017-05-27T08:01:40.793Z,37.26
2017-05-27T08:02:21.687Z,36.99
2017-05-27T08:03:02.282Z,36.58
2017-05-27T08:03:42.972Z,36.4
2017-05-27T08:04:25.367Z,38.04
2017-05-27T08:05:05.959Z,36.49
2017-05-27T08:05:46.554Z,36.6
2017-05-27T08:06:27.167Z,37.55
2017-05-27T08:07:07.774Z,36
2017-05-27T08:07:50.223Z,38.06
2017-05-27T08:08:30.855Z,37.38
2017-05-27T08:09:11.454Z,38.81
2017-05-27T08:09:52.062Z,38.71
2017-05-27T08:10:32.658Z,38.06
2017-05-27T08:11:15.103Z,38.91
2017-05-27T08:11:55.697Z,39.78
2017-05-27T08:12:36.296Z,39.22
2017-05-27T08:13:16.897Z,37.67
2017-05-27T08:13:57.492Z,36.99
2017-05-27T08:14:38.413Z,37.55
2017-05-27T08:15:19.004Z,36.98
2017-05-27T08:16:01.742Z,36.4
2017-05-27T08:16:42.322Z,35.91
2017-05-27T08:17:22.938Z,38.81
2017-05-27T08:18:03.528Z,37.55
2017-05-27T08:18:47.955Z,37.36
2017-05-27T08:19:30.222Z,36.3
2017-05-27T08:20:10.813Z,37.36
2017-05-27T08:20:51.409Z,37.46
2017-05-27T08:21:32.011Z,36.78
2017-05-27T08:22:17.836Z,38.62
2017-05-27T08:23:01.387Z,37.55
2017-05-27T08:23:45.957Z,38.23
2017-05-27T08:24:29.459Z,39.88
2017-05-27T08:25:21.018Z,40.94
2017-05-27T08:26:02.158Z,38.71
2017-05-27T08:26:42.914Z,38.04
2017-05-27T08:27:23.509Z,38.06
2017-05-27T08:28:04.106Z,38.53
2017-05-27T08:28:45.307Z,39.2
2017-05-27T08:29:26.522Z,38.62
2017-05-27T08:30:08.445Z,38.91
2017-05-27T08:30:50.520Z,39.29
2017-05-27T08:31:34.837Z,39.8
2017-05-27T08:32:27.830Z,38.43
2017-05-27T08:33:12.709Z,37.17
2017-05-27T08:34:02.319Z,38.33
2017-05-27T08:34:48.658Z,39.11
2017-05-27T08:35:30.005Z,37.55
2017-05-27T08:36:13.386Z,35.81
2017-05-27T08:37:01.921Z,36.58
2017-05-27T08:38:01.342Z,38.43
2017-05-27T08:39:01.114Z,40.07
2017-05-27T08:40:00.813Z,39.97
2017-05-27T08:40:52.741Z,39.69
2017-05-27T08:41:36.161Z,38.71
2017-05-27T08:42:37.693Z,38.62
2017-05-27T08:43:40.358Z,38.23
2017-05-27T08:44:38.344Z,37.46
2017-05-27T08:45:27.445Z,39.49
2017-05-27T08:46:08.719Z,40.65
2017-05-27T08:46:50.272Z,39.97
2017-05-27T08:47:55.826Z,38.13
2017-05-27T08:48:37.150Z,37.75
2017-05-27T08:49:18.361Z,37.55
2017-05-27T08:49:59.244Z,37.26
2017-05-27T08:50:40.651Z,38.53
2017-05-27T08:51:21.956Z,37.94
2017-05-27T08:52:03.172Z,37.94
2017-05-27T08:52:44.549Z,38.53
2017-05-27T08:53:26.327Z,38.81
2017-05-27T08:54:07.479Z,39.11